Time,TemperatureF,DewpointF,PressureIn,WindDirection,WindDirectionDegrees,WindSpeedMPH,WindSpeedGustMPH,Humidity,HourlyPrecipIn,Conditions,Clouds,dailyrainin,SoftwareType,DateUTC
2013-06-27 00:00:00,66.5,66.0,29.83,ENE,76,1.0,-999.0,98,-99.99,,,0.00,weatherlink.com 1.10,2013-06-27 04:00:00,
2013-06-27 00:15:00,65.9,65.0,29.83,East,94,0.0,-999.0,98,-99.99,,,0.00,weatherlink.com 1.10,2013-06-27 04:15:00,
2013-06-27 00:30:00,65.7,65.0,29.82,East,94,0.0,-999.0,98,-99.99,,,0.00,weatherlink.com 1.10,2013-06-27 04:30:00,
2013-06-27 00:45:00,65.3,65.0,29.82,East,94,0.0,-999.0,98,-99.99,,,0.00,weatherlink.com 1.10,2013-06-27 04:45:00,
2013-06-27 01:01:00,64.8,64.0,29.82,East,94,1.0,-999.0,98,-99.99,,,0.00,weatherlink.com 1.10,2013-06-27 05:01:00,
2013-06-27 01:16:00,64.5,64.0,29.82,East,94,0.0,-999.0,98,-99.99,,,0.00,weatherlink.com 1.10,2013-06-27 05:16:00,
2013-06-27 01:31:00,64.4,64.0,29.82,East,94,0.0,-999.0,98,-99.99,,,0.00,weatherlink.com 1.10,2013-06-27 05:31:00,
2013-06-27 01:46:00,64.2,64.0,29.82,East,94,0.0,-999.0,98,-99.99,,,0.00,weatherlink.com 1.10,2013-06-27 05:46:00,
2013-06-27 02:01:00,64.0,64.0,29.82,East,94,0.0,-999.0,98,-99.99,,,0.00,weatherlink.com 1.10,2013-06-27 06:01:00,
2013-06-27 02:16:00,63.9,63.0,29.81,East,94,1.0,-999.0,98,-99.99,,,0.00,weatherlink.com 1.10,2013-06-27 06:16:00,
2013-06-27 02:31:00,63.7,63.0,29.81,East,94,3.0,-999.0,98,-99.99,,,0.00,weatherlink.com 1.10,2013-06-27 06:31:00,
2013-06-27 02:46:00,63.4,63.0,29.81,East,94,0.0,-999.0,98,-99.99,,,0.00,weatherlink.com 1.10,2013-06-27 06:46:00,
2013-06-27 03:01:00,63.4,63.0,29.80,East,94,0.0,-999.0,98,-99.99,,,0.00,weatherlink.com 1.10,2013-06-27 07:01:00,
2013-06-27 03:16:00,63.2,63.0,29.81,East,94,0.0,-999.0,98,-99.99,,,0.00,weatherlink.com 1.10,2013-06-27 07:16:00,
2013-06-27 03:31:00,63.2,63.0,29.80,East,94,0.0,-999.0,98,-99.99,,,0.00,weatherlink.com 1.10,2013-06-27 07:31:00,
2013-06-27 03:47:00,63.1,63.0,29.80,East,94,0.0,-999.0,98,-99.99,,,0.00,weatherlink.com 1.10,2013-06-27 07:47:00,
2013-06-27 04:02:00,62.8,62.0,29.80,East,92,2.0,-999.0,98,-99.99,,,0.00,weatherlink.com 1.10,2013-06-27 08:02:00,
2013-06-27 04:17:00,62.6,62.0,29.80,East,96,0.0,-999.0,98,-99.99,,,0.00,weatherlink.com 1.10,2013-06-27 08:17:00,
2013-06-27 04:32:00,62.5,62.0,29.81,SE,128,4.0,-999.0,98,-99.99,,,0.00,weatherlink.com 1.10,2013-06-27 08:32:00,
2013-06-27 04:47:00,62.3,62.0,29.81,East,82,1.0,-999.0,98,-99.99,,,0.00,weatherlink.com 1.10,2013-06-27 08:47:00,
2013-06-27 05:02:00,62.1,62.0,29.82,East,93,2.0,-999.0,98,-99.99,,,0.00,weatherlink.com 1.10,2013-06-27 09:02:00,
2013-06-27 05:17:00,61.9,61.0,29.81,East,100,0.0,-999.0,98,-99.99,,,0.00,weatherlink.com 1.10,2013-06-27 09:17:00,
2013-06-27 05:32:00,61.8,61.0,29.82,East,101,4.0,-999.0,98,-99.99,,,0.00,weatherlink.com 1.10,2013-06-27 09:32:00,
2013-06-27 05:47:00,61.6,61.0,29.83,ESE,113,0.0,-999.0,98,-99.99,,,0.00,weatherlink.com 1.10,2013-06-27 09:47:00,
2013-06-27 06:02:00,61.6,61.0,29.83,ESE,113,0.0,-999.0,98,-99.99,,,0.01,weatherlink.com 1.10,2013-06-27 10:02:00,
2013-06-27 06:17:00,61.5,61.0,29.84,ESE,113,4.0,-999.0,98,-99.99,,,0.01,weatherlink.com 1.10,2013-06-27 10:17:00,
2013-06-27 06:32:00,61.4,61.0,29.83,ESE,113,0.0,-999.0,98,-99.99,,,0.01,weatherlink.com 1.10,2013-06-27 10:32:00,
2013-06-27 06:48:00,61.3,61.0,29.83,ESE,113,0.0,-999.0,98,-99.99,,,0.01,weatherlink.com 1.10,2013-06-27 10:48:00,
2013-06-27 07:03:00,61.5,61.0,29.83,ESE,113,0.0,-999.0,98,-99.99,,,0.01,weatherlink.com 1.10,2013-06-27 11:03:00,
2013-06-27 07:18:00,61.4,61.0,29.83,ESE,113,0.0,-999.0,98,-99.99,,,0.01,weatherlink.com 1.10,2013-06-27 11:18:00,
2013-06-27 07:33:00,61.6,61.0,29.83,SE,145,1.0,-999.0,98,-99.99,,,0.01,weatherlink.com 1.10,2013-06-27 11:33:00,
2013-06-27 07:48:00,61.5,61.0,29.83,SE,144,5.0,-999.0,98,-99.99,,,0.01,weatherlink.com 1.10,2013-06-27 11:48:00,
2013-06-27 08:03:00,61.3,61.0,29.84,SSE,150,0.0,-999.0,98,-99.99,,,0.01,weatherlink.com 1.10,2013-06-27 12:03:00,
2013-06-27 08:18:00,61.4,61.0,29.84,SSE,163,0.0,-999.0,98,-99.99,,,0.01,weatherlink.com 1.10,2013-06-27 12:18:00,
2013-06-27 08:33:00,61.5,61.0,29.84,SE,142,1.0,-999.0,98,-99.99,,,0.01,weatherlink.com 1.10,2013-06-27 12:33:00,
2013-06-27 08:48:00,61.8,61.0,29.84,SE,142,0.0,-999.0,98,-99.99,,,0.01,weatherlink.com 1.10,2013-06-27 12:48:00,
2013-06-27 09:03:00,62.2,62.0,29.84,SE,144,0.0,-999.0,98,-99.99,,,0.01,weatherlink.com 1.10,2013-06-27 13:03:00,
2013-06-27 09:18:00,62.2,62.0,29.84,SSE,162,2.0,-999.0,98,-99.99,,,0.01,weatherlink.com 1.10,2013-06-27 13:18:00,
2013-06-27 09:34:00,62.1,62.0,29.83,SE,146,1.0,-999.0,98,-99.99,,,0.01,weatherlink.com 1.10,2013-06-27 13:34:00,
2013-06-27 09:49:00,62.6,62.0,29.83,SE,146,0.0,-999.0,98,-99.99,,,0.01,weatherlink.com 1.10,2013-06-27 13:49:00,
2013-06-27 10:04:00,63.0,63.0,29.83,SE,146,4.0,-999.0,98,-99.99,,,0.01,weatherlink.com 1.10,2013-06-27 14:04:00,
2013-06-27 10:19:00,62.9,62.0,29.83,SE,130,0.0,-999.0,98,-99.99,,,0.01,weatherlink.com 1.10,2013-06-27 14:19:00,
2013-06-27 10:34:00,63.4,63.0,29.82,SE,130,0.0,-999.0,98,-99.99,,,0.01,weatherlink.com 1.10,2013-06-27 14:34:00,
2013-06-27 10:49:00,63.6,63.0,29.83,SE,130,0.0,-999.0,97,-99.99,,,0.01,weatherlink.com 1.10,2013-06-27 14:49:00,
2013-06-27 11:06:00,64.1,63.0,29.82,SE,130,2.0,-999.0,97,-99.99,,,0.01,weatherlink.com 1.10,2013-06-27 15:06:00,
2013-06-27 11:26:00,64.4,64.0,29.83,SE,130,2.0,-999.0,97,-99.99,,,0.01,weatherlink.com 1.10,2013-06-27 15:26:00,
2013-06-27 11:35:00,64.3,63.0,29.83,SE,135,0.0,-999.0,96,-99.99,,,0.01,weatherlink.com 1.10,2013-06-27 15:35:00,
2013-06-27 11:50:00,64.8,64.0,29.83,SE,134,0.0,-999.0,97,-99.99,,,0.01,weatherlink.com 1.10,2013-06-27 15:50:00,
2013-06-27 12:05:00,64.9,64.0,29.83,SE,134,0.0,-999.0,97,-99.99,,,0.01,weatherlink.com 1.10,2013-06-27 16:05:00,
2013-06-27 12:20:00,65.6,65.0,29.82,SE,134,3.0,-999.0,96,-99.99,,,0.01,weatherlink.com 1.10,2013-06-27 16:20:00,
2013-06-27 12:36:00,65.9,65.0,29.82,NNE,17,0.0,-999.0,95,-99.99,,,0.01,weatherlink.com 1.10,2013-06-27 16:36:00,
2013-06-27 12:51:00,66.3,65.0,29.81,NE,38,5.0,-999.0,95,-99.99,,,0.01,weatherlink.com 1.10,2013-06-27 16:51:00,
2013-06-27 13:05:00,67.1,65.0,29.81,SE,124,0.0,-999.0,94,-99.99,,,0.01,weatherlink.com 1.10,2013-06-27 17:05:00,
2013-06-27 13:20:00,67.5,66.0,29.80,East,87,0.0,-999.0,93,-99.99,,,0.01,weatherlink.com 1.10,2013-06-27 17:20:00,
2013-06-27 13:36:00,68.8,67.0,29.79,East,80,0.0,-999.0,94,-99.99,,,0.01,weatherlink.com 1.10,2013-06-27 17:36:00,
2013-06-27 14:19:00,71.5,68.0,29.80,SSE,161,5.0,-999.0,88,-99.99,,,0.01,weatherlink.com 1.10,2013-06-27 18:19:00,
2013-06-27 14:37:00,71.1,67.0,29.80,SE,144,2.0,-999.0,88,-99.99,,,0.01,weatherlink.com 1.10,2013-06-27 18:37:00,
2013-06-27 14:52:00,70.9,68.0,29.79,SE,134,0.0,-999.0,89,-99.99,,,0.01,weatherlink.com 1.10,2013-06-27 18:52:00,
2013-06-27 15:07:00,72.1,69.0,29.78,SE,130,4.0,-999.0,89,-99.99,,,0.01,weatherlink.com 1.10,2013-06-27 19:07:00,
2013-06-27 15:22:00,72.2,69.0,29.78,SE,140,2.0,-999.0,88,-99.99,,,0.01,weatherlink.com 1.10,2013-06-27 19:22:00,
2013-06-27 15:37:00,72.2,69.0,29.78,SE,126,2.0,-999.0,89,-99.99,,,0.01,weatherlink.com 1.10,2013-06-27 19:37:00,
2013-06-27 15:52:00,71.7,68.0,29.78,ESE,121,1.0,-999.0,88,-99.99,,,0.01,weatherlink.com 1.10,2013-06-27 19:52:00,
2013-06-27 16:07:00,72.0,69.0,29.78,ESE,122,0.0,-999.0,90,-99.99,,,0.01,weatherlink.com 1.10,2013-06-27 20:07:00,
2013-06-27 16:22:00,72.7,69.0,29.77,SE,143,2.0,-999.0,89,-99.99,,,0.01,weatherlink.com 1.10,2013-06-27 20:22:00,
2013-06-27 16:38:00,72.9,69.0,29.76,SSE,153,0.0,-999.0,87,-99.99,,,0.01,weatherlink.com 1.10,2013-06-27 20:38:00,
2013-06-27 16:53:00,73.4,69.0,29.76,SE,144,1.0,-999.0,86,-99.99,,,0.01,weatherlink.com 1.10,2013-06-27 20:53:00,
2013-06-27 17:08:00,73.4,69.0,29.76,SSE,165,2.0,-999.0,86,-99.99,,,0.01,weatherlink.com 1.10,2013-06-27 21:08:00,
2013-06-27 17:38:00,73.0,69.0,29.75,SE,144,5.0,-999.0,86,-99.99,,,0.01,weatherlink.com 1.10,2013-06-27 21:38:00,
2013-06-27 17:53:00,72.2,69.0,29.76,SSE,165,0.0,-999.0,88,-99.99,,,0.01,weatherlink.com 1.10,2013-06-27 21:53:00,
2013-06-27 18:08:00,71.5,68.0,29.76,ESE,112,7.0,-999.0,88,-99.99,,,0.01,weatherlink.com 1.10,2013-06-27 22:08:00,
2013-06-27 18:23:00,70.6,68.0,29.76,South,180,4.0,-999.0,90,-99.99,,,0.01,weatherlink.com 1.10,2013-06-27 22:23:00,
2013-06-27 18:39:00,70.0,67.0,29.76,SSE,150,0.0,-999.0,90,-99.99,,,0.01,weatherlink.com 1.10,2013-06-27 22:39:00,
2013-06-27 18:54:00,69.4,67.0,29.76,ESE,116,0.0,-999.0,91,-99.99,,,0.01,weatherlink.com 1.10,2013-06-27 22:54:00,
2013-06-27 19:08:00,68.9,67.0,29.76,ESE,109,3.0,-999.0,92,-99.99,,,0.01,weatherlink.com 1.10,2013-06-27 23:08:00,
2013-06-27 19:23:00,68.6,67.0,29.76,ESE,121,0.0,-999.0,93,-99.99,,,0.01,weatherlink.com 1.10,2013-06-27 23:23:00,
2013-06-27 19:39:00,68.0,66.0,29.77,SE,125,2.0,-999.0,93,-99.99,,,0.01,weatherlink.com 1.10,2013-06-27 23:39:00,
2013-06-27 19:54:00,67.7,66.0,29.77,SE,142,2.0,-999.0,93,-99.99,,,0.01,weatherlink.com 1.10,2013-06-27 23:54:00,
2013-06-27 20:09:00,67.5,66.0,29.77,SE,142,4.0,-999.0,93,-99.99,,,0.01,weatherlink.com 1.10,2013-06-28 00:09:00,
2013-06-27 20:24:00,67.1,65.0,29.77,SSE,159,0.0,-999.0,93,-99.99,,,0.01,weatherlink.com 1.10,2013-06-28 00:24:00,
2013-06-27 20:54:00,66.6,65.0,29.78,SSE,157,1.0,-999.0,94,-99.99,,,0.01,weatherlink.com 1.10,2013-06-28 00:54:00,
2013-06-27 21:09:00,66.2,65.0,29.78,SE,126,4.0,-999.0,94,-99.99,,,0.01,weatherlink.com 1.10,2013-06-28 01:09:00,
2013-06-27 21:24:00,65.9,64.0,29.78,SE,143,4.0,-999.0,93,-99.99,,,0.01,weatherlink.com 1.10,2013-06-28 01:24:00,
2013-06-27 21:40:00,65.5,64.0,29.79,SE,130,4.0,-999.0,94,-99.99,,,0.01,weatherlink.com 1.10,2013-06-28 01:40:00,
2013-06-27 22:09:00,65.2,64.0,29.78,SSE,153,0.0,-999.0,94,-99.99,,,0.01,weatherlink.com 1.10,2013-06-28 02:09:00,
2013-06-27 22:40:00,64.3,63.0,29.77,SE,128,2.0,-999.0,95,-99.99,,,0.02,weatherlink.com 1.10,2013-06-28 02:40:00,
2013-06-27 22:55:00,63.8,62.0,29.77,ESE,118,4.0,-999.0,95,-99.99,,,0.02,weatherlink.com 1.10,2013-06-28 02:55:00,
2013-06-27 23:10:00,63.5,62.0,29.77,SE,126,0.0,-999.0,95,-99.99,,,0.02,weatherlink.com 1.10,2013-06-28 03:10:00,
2013-06-27 23:25:00,63.2,62.0,29.76,NE,38,0.0,-999.0,96,-99.99,,,0.02,weatherlink.com 1.10,2013-06-28 03:25:00,
2013-06-27 23:55:00,62.2,61.0,29.76,East,97,0.0,-999.0,96,-99.99,,,0.02,weatherlink.com 1.10,2013-06-28 03:55:00,